createdAt,value
2018-06-25T00:00:03.423Z,20.00
2018-06-25T00:02:35.065Z,20.00
2018-06-25T00:05:06.468Z,20.10
2018-06-25T00:07:37.869Z,20.00
2018-06-25T00:10:09.024Z,20.10
2018-06-25T00:12:43.639Z,20.10
2018-06-25T00:15:14.953Z,20.10
2018-06-25T00:17:46.131Z,20.00
2018-06-25T00:20:17.807Z,19.90
2018-06-25T00:22:48.936Z,19.90
2018-06-25T00:25:20.127Z,19.90
2018-06-25T00:27:51.494Z,19.80
2018-06-25T00:30:22.877Z,19.70
2018-06-25T00:32:54.549Z,19.70
2018-06-25T00:35:25.680Z,19.60
2018-06-25T00:37:57.100Z,19.40
2018-06-25T00:40:28.235Z,19.50
2018-06-25T00:43:00.123Z,19.50
2018-06-25T00:48:05.804Z,19.50
2018-06-25T00:50:37.419Z,19.60
2018-06-25T00:53:08.520Z,19.50
2018-06-25T00:55:39.912Z,19.40
2018-06-25T00:58:11.555Z,19.40
2018-06-25T01:00:42.884Z,19.50
2018-06-25T01:03:14.251Z,19.40
2018-06-25T01:05:45.453Z,19.50
2018-06-25T01:08:16.851Z,19.30
2018-06-25T01:10:48.048Z,19.20
2018-06-25T01:13:19.671Z,19.20
2018-06-25T01:15:51.028Z,19.10
2018-06-25T01:18:22.211Z,19.10
2018-06-25T01:20:53.961Z,19.00
2018-06-25T01:23:25.355Z,19.00
2018-06-25T01:25:56.369Z,18.90
2018-06-25T01:28:28.379Z,18.60
2018-06-25T01:30:59.728Z,18.50
2018-06-25T01:33:31.408Z,18.60
2018-06-25T01:38:33.301Z,18.50
2018-06-25T01:41:04.964Z,18.60
2018-06-25T01:43:36.103Z,18.50
2018-06-25T01:46:07.467Z,18.50
2018-06-25T01:48:38.665Z,18.40
2018-06-25T01:51:10.096Z,18.30
2018-06-25T01:53:41.462Z,18.40
2018-06-25T01:56:12.811Z,18.40
2018-06-25T01:58:44.271Z,18.50
2018-06-25T02:01:15.617Z,18.60
2018-06-25T02:03:47.253Z,18.50
2018-06-25T02:06:18.420Z,18.50
2018-06-25T02:08:49.594Z,18.60
2018-06-25T02:11:21.221Z,18.60
2018-06-25T02:13:52.595Z,18.60
2018-06-25T02:16:23.918Z,18.50
2018-06-25T02:18:54.988Z,18.40
2018-06-25T02:21:26.612Z,18.40
2018-06-25T02:26:28.524Z,18.60
2018-06-25T02:28:59.696Z,18.40
2018-06-25T02:31:30.883Z,18.30
2018-06-25T02:34:02.271Z,18.30
2018-06-25T02:36:33.445Z,18.20
2018-06-25T02:39:07.084Z,18.10
2018-06-25T02:41:38.904Z,18.00
2018-06-25T02:44:10.069Z,18.00
2018-06-25T02:49:12.008Z,18.00
2018-06-25T02:51:43.409Z,18.10
2018-06-25T02:54:14.723Z,18.10
2018-06-25T02:56:46.168Z,18.00
2018-06-25T02:59:17.579Z,18.10
2018-06-25T03:01:48.951Z,18.10
2018-06-25T03:04:20.308Z,18.00
2018-06-25T03:06:51.877Z,18.00
2018-06-25T03:09:23.529Z,17.80
2018-06-25T03:11:54.822Z,17.70
2018-06-25T03:14:25.870Z,17.70
2018-06-25T03:16:57.047Z,17.70
2018-06-25T03:19:28.397Z,17.60
2018-06-25T03:21:59.664Z,17.60
2018-06-25T03:24:30.799Z,17.60
2018-06-25T03:27:01.994Z,17.50
2018-06-25T03:29:33.382Z,17.30
2018-06-25T03:32:05.071Z,17.20
2018-06-25T03:37:07.196Z,17.20
2018-06-25T03:40:41.370Z,17.10
2018-06-25T03:45:44.053Z,17.10
2018-06-25T03:48:15.411Z,17.10
2018-06-25T03:50:47.075Z,17.00
2018-06-25T03:53:18.549Z,17.00
2018-06-25T03:55:49.767Z,17.10
2018-06-25T03:58:20.796Z,17.20
2018-06-25T04:00:52.100Z,17.10
2018-06-25T04:03:23.361Z,17.00
2018-06-25T04:05:55.781Z,16.90
2018-06-25T04:08:26.923Z,17.00
2018-06-25T04:10:58.304Z,17.10
2018-06-25T04:13:29.706Z,17.20
2018-06-25T04:16:01.040Z,17.30
2018-06-25T04:18:32.524Z,17.10
2018-06-25T04:21:03.865Z,17.00
2018-06-25T04:23:35.103Z,16.80
2018-06-25T04:26:06.925Z,16.90
2018-06-25T04:28:38.213Z,16.80
2018-06-25T04:31:09.633Z,16.80
2018-06-25T04:33:40.807Z,16.80
2018-06-25T04:36:12.181Z,16.70
2018-06-25T04:38:43.813Z,16.70
2018-06-25T04:41:15.445Z,16.60
2018-06-25T04:43:46.716Z,16.60
2018-06-25T04:46:17.967Z,16.60
2018-06-25T04:48:49.155Z,16.60
2018-06-25T04:51:20.355Z,16.60
2018-06-25T04:53:51.817Z,16.60
2018-06-25T04:56:23.077Z,16.60
2018-06-25T04:58:54.114Z,16.60
2018-06-25T05:01:25.741Z,16.60
2018-06-25T05:03:57.108Z,16.70
2018-06-25T05:06:29.227Z,16.70
2018-06-25T05:09:00.361Z,16.70
2018-06-25T05:11:31.501Z,16.80
2018-06-25T05:14:03.059Z,16.90
2018-06-25T05:16:34.245Z,16.90
2018-06-25T05:19:05.633Z,17.00
2018-06-25T05:21:36.971Z,17.10
2018-06-25T05:24:08.433Z,17.10
2018-06-25T05:26:39.756Z,17.20
2018-06-25T05:29:11.164Z,17.20
2018-06-25T05:31:42.606Z,17.20
2018-06-25T05:34:13.944Z,17.20
2018-06-25T05:36:45.562Z,17.20
2018-06-25T05:39:16.874Z,17.20
2018-06-25T05:41:49.353Z,17.40
2018-06-25T05:44:20.643Z,17.50
2018-06-25T05:46:52.609Z,17.50
2018-06-25T05:49:23.848Z,17.60
2018-06-25T05:51:55.260Z,17.60
2018-06-25T05:54:27.680Z,17.60
2018-06-25T05:59:29.746Z,17.60
2018-06-25T06:02:01.136Z,17.70
2018-06-25T06:04:32.604Z,17.80
2018-06-25T06:07:03.985Z,17.80
2018-06-25T06:09:35.300Z,17.90
2018-06-25T06:12:07.283Z,17.90
2018-06-25T06:14:38.528Z,17.80
2018-06-25T06:17:09.892Z,17.80
2018-06-25T06:19:41.265Z,18.00
2018-06-25T06:22:12.686Z,18.00
2018-06-25T06:24:44.352Z,18.20
2018-06-25T06:27:15.476Z,18.40
2018-06-25T06:29:46.664Z,18.60
2018-06-25T06:32:18.278Z,18.60
2018-06-25T06:34:49.426Z,18.60
2018-06-25T06:37:20.779Z,18.70
2018-06-25T06:39:52.503Z,18.90
2018-06-25T06:42:23.572Z,19.00
2018-06-25T06:44:54.966Z,19.00
2018-06-25T06:47:26.214Z,19.30
2018-06-25T06:49:57.324Z,19.30
2018-06-25T06:52:28.711Z,19.60
2018-06-25T06:55:00.432Z,19.60
2018-06-25T06:57:31.554Z,19.80
2018-06-25T07:00:02.778Z,20.00
2018-06-25T07:02:33.898Z,19.90
2018-06-25T07:05:05.457Z,20.30
2018-06-25T07:07:36.858Z,20.40
2018-06-25T07:10:08.165Z,20.60
2018-06-25T07:13:42.582Z,20.90
2018-06-25T07:16:13.747Z,21.10
2018-06-25T07:18:45.018Z,21.00
2018-06-25T07:23:46.948Z,21.60
2018-06-25T07:26:25.428Z,21.60
2018-06-25T07:28:57.345Z,21.80
2018-06-25T07:31:28.571Z,21.90
2018-06-25T07:34:00.828Z,21.80
2018-06-25T07:36:32.195Z,22.00
2018-06-25T07:39:03.645Z,22.30
2018-06-25T07:41:34.949Z,22.20
2018-06-25T07:44:06.099Z,22.40
2018-06-25T07:46:37.737Z,22.60
2018-06-25T07:49:09.053Z,22.50
2018-06-25T07:51:40.412Z,22.60
2018-06-25T07:54:11.472Z,22.40
2018-06-25T07:56:42.742Z,22.30
2018-06-25T07:59:14.388Z,22.30
2018-06-25T08:01:45.599Z,22.50
2018-06-25T08:04:17.367Z,22.80
2018-06-25T08:06:48.759Z,22.80
2018-06-25T08:11:53.952Z,22.60
2018-06-25T08:14:25.300Z,22.70
2018-06-25T08:16:56.569Z,22.60
2018-06-25T08:19:27.692Z,22.90
2018-06-25T08:21:58.858Z,23.00
2018-06-25T08:24:30.253Z,23.30
2018-06-25T08:27:01.500Z,23.40
2018-06-25T08:29:33.059Z,23.70
2018-06-25T08:32:04.512Z,23.90
2018-06-25T08:34:35.687Z,23.90
2018-06-25T08:37:07.686Z,24.00
2018-06-25T08:39:38.972Z,23.90
2018-06-25T08:42:10.155Z,23.80
2018-06-25T08:44:41.355Z,24.00
2018-06-25T08:47:13.014Z,23.90
2018-06-25T08:49:44.309Z,24.10
2018-06-25T08:52:15.711Z,24.40
2018-06-25T08:54:47.092Z,24.70
2018-06-25T08:57:18.810Z,25.10
2018-06-25T08:59:49.858Z,25.50
2018-06-25T09:02:21.104Z,25.30
2018-06-25T09:04:52.258Z,25.40
2018-06-25T09:07:23.916Z,25.20
2018-06-25T09:09:55.460Z,25.50
2018-06-25T09:12:26.816Z,25.30
2018-06-25T09:14:58.017Z,25.60
2018-06-25T09:17:29.391Z,25.80
2018-06-25T09:20:00.779Z,25.90
2018-06-25T09:22:32.001Z,25.70
2018-06-25T09:25:03.193Z,25.60
2018-06-25T09:27:39.555Z,25.90
2018-06-25T09:30:10.845Z,26.50
2018-06-25T09:32:42.147Z,26.80
2018-06-25T09:35:13.429Z,27.20
2018-06-25T09:37:44.689Z,26.80
2018-06-25T09:40:16.725Z,27.20
2018-06-25T09:45:18.452Z,28.70
2018-06-25T09:47:49.880Z,27.80
2018-06-25T09:50:21.195Z,27.10
2018-06-25T09:52:52.398Z,27.10
2018-06-25T09:55:23.743Z,26.70
2018-06-25T09:57:54.986Z,26.60
2018-06-25T10:00:31.513Z,27.50
2018-06-25T10:03:03.664Z,27.80
2018-06-25T10:05:35.010Z,28.50
2018-06-25T10:08:07.420Z,29.30
2018-06-25T10:10:38.942Z,28.80
2018-06-25T10:13:09.999Z,29.20
2018-06-25T10:15:41.211Z,29.00
2018-06-25T10:18:13.040Z,28.90
2018-06-25T10:20:45.091Z,29.00
2018-06-25T10:23:16.108Z,29.20
2018-06-25T10:25:47.461Z,29.60
2018-06-25T10:28:18.688Z,29.50
2018-06-25T10:30:49.931Z,29.80
2018-06-25T10:33:21.248Z,29.50
2018-06-25T10:35:53.092Z,29.60
2018-06-25T10:38:24.399Z,30.00
2018-06-25T10:40:55.947Z,30.00
2018-06-25T10:43:27.985Z,30.10
2018-06-25T10:45:59.634Z,29.90
2018-06-25T10:48:30.791Z,29.40
2018-06-25T10:51:02.473Z,29.50
2018-06-25T10:53:33.735Z,29.80
2018-06-25T10:56:04.968Z,29.60
2018-06-25T10:58:36.588Z,29.60
2018-06-25T11:01:07.900Z,29.70
2018-06-25T11:03:39.295Z,29.90
2018-06-25T11:06:10.893Z,29.80
2018-06-25T11:08:42.285Z,29.90
2018-06-25T11:11:13.690Z,29.60
2018-06-25T11:13:45.090Z,29.80
2018-06-25T11:16:16.237Z,29.50
2018-06-25T11:18:47.808Z,29.50
2018-06-25T11:21:19.043Z,29.90
2018-06-25T11:23:50.856Z,30.30
2018-06-25T11:26:22.253Z,31.10
2018-06-25T11:28:53.552Z,30.80
2018-06-25T11:31:24.982Z,30.70
2018-06-25T11:33:57.703Z,30.60
2018-06-25T11:36:28.908Z,30.90
2018-06-25T11:39:00.363Z,30.30
2018-06-25T11:41:32.076Z,30.40
2018-06-25T11:44:04.930Z,31.50
2018-06-25T11:46:36.067Z,31.10
2018-06-25T11:49:07.250Z,31.30
2018-06-25T11:51:38.287Z,31.20
2018-06-25T11:54:09.808Z,31.50
2018-06-25T11:56:41.203Z,31.20
2018-06-25T11:59:12.404Z,30.60
2018-06-25T12:01:43.917Z,30.50
2018-06-25T12:04:15.185Z,30.40
2018-06-25T12:06:46.533Z,30.50
2018-06-25T12:09:18.510Z,31.10
2018-06-25T12:11:49.588Z,31.30
2018-06-25T12:14:20.992Z,30.60
2018-06-25T12:16:52.144Z,30.80
2018-06-25T12:19:23.742Z,31.20
2018-06-25T12:21:55.345Z,31.80
2018-06-25T12:24:26.915Z,31.20
2018-06-25T12:26:58.248Z,31.20
2018-06-25T12:29:29.716Z,31.10
2018-06-25T12:32:00.847Z,31.40
2018-06-25T12:34:32.065Z,31.50
2018-06-25T12:37:03.201Z,32.00
2018-06-25T12:39:34.584Z,32.20
2018-06-25T12:42:05.866Z,31.90
2018-06-25T12:44:37.760Z,31.50
2018-06-25T12:47:09.035Z,31.60
2018-06-25T12:49:41.110Z,31.80
2018-06-25T12:52:12.305Z,32.00
2018-06-25T12:54:43.324Z,32.20
2018-06-25T12:57:14.720Z,31.80
2018-06-25T12:59:45.721Z,31.90
2018-06-25T13:04:54.340Z,32.10
2018-06-25T13:07:25.567Z,32.10
2018-06-25T13:09:56.953Z,32.50
2018-06-25T13:12:28.416Z,32.40
2018-06-25T13:14:59.584Z,32.60
2018-06-25T13:17:30.974Z,32.90
2018-06-25T13:20:02.340Z,32.90
2018-06-25T13:22:33.730Z,32.60
2018-06-25T13:25:05.340Z,32.60
2018-06-25T13:27:36.872Z,32.70
2018-06-25T13:30:08.119Z,32.70
2018-06-25T13:32:39.654Z,32.40
2018-06-25T13:35:11.041Z,32.60
2018-06-25T13:37:42.441Z,32.70
2018-06-25T13:40:13.646Z,32.40
2018-06-25T13:42:45.045Z,32.70
2018-06-25T13:45:16.230Z,32.30
2018-06-25T13:47:47.422Z,32.20
2018-06-25T13:50:18.575Z,32.30
2018-06-25T13:52:50.008Z,32.00
2018-06-25T13:55:21.227Z,32.00
2018-06-25T13:57:52.421Z,31.30
2018-06-25T14:00:23.564Z,31.30
2018-06-25T14:02:55.114Z,31.60
2018-06-25T14:05:26.346Z,31.80
2018-06-25T14:07:57.655Z,31.70
2018-06-25T14:10:29.097Z,31.00
2018-06-25T14:13:00.512Z,31.10
2018-06-25T14:15:31.862Z,31.20
2018-06-25T14:18:03.306Z,31.40
2018-06-25T14:20:34.699Z,31.40
2018-06-25T14:23:06.013Z,31.40
2018-06-25T14:25:42.361Z,31.40
2018-06-25T14:28:18.983Z,31.60
2018-06-25T14:31:22.830Z,31.50
2018-06-25T14:33:59.128Z,31.10
2018-06-25T14:36:30.178Z,31.00
2018-06-25T14:39:01.364Z,31.00
2018-06-25T14:41:32.525Z,30.50
2018-06-25T14:44:03.739Z,30.20
2018-06-25T14:46:35.213Z,30.60
2018-06-25T14:51:37.703Z,30.50
2018-06-25T14:54:09.108Z,30.20
2018-06-25T14:56:40.456Z,30.30
2018-06-25T14:59:12.210Z,30.20
2018-06-25T15:01:43.450Z,30.00
2018-06-25T15:04:15.116Z,29.90
2018-06-25T15:06:46.476Z,30.00
2018-06-25T15:09:18.053Z,30.10
2018-06-25T15:11:49.464Z,30.40
2018-06-25T15:14:20.767Z,30.60
2018-06-25T15:16:52.047Z,30.40
2018-06-25T15:19:23.159Z,30.20
2018-06-25T15:21:54.335Z,30.30
2018-06-25T15:24:25.604Z,30.60
2018-06-25T15:26:56.704Z,30.50
2018-06-25T15:29:27.989Z,30.60
2018-06-25T15:31:59.350Z,30.30
2018-06-25T15:34:30.688Z,30.40
2018-06-25T15:37:01.930Z,30.50
2018-06-25T15:39:33.235Z,30.30
2018-06-25T15:42:04.472Z,30.30
2018-06-25T15:44:35.880Z,30.30
2018-06-25T15:47:07.537Z,30.20
2018-06-25T15:49:39.106Z,30.00
2018-06-25T15:52:10.728Z,30.10
2018-06-25T15:54:41.797Z,30.00
2018-06-25T15:57:13.248Z,30.00
2018-06-25T15:59:45.065Z,29.80
2018-06-25T16:04:47.372Z,29.70
2018-06-25T16:09:49.536Z,29.80
2018-06-25T16:12:20.938Z,29.90
2018-06-25T16:14:52.312Z,29.70
2018-06-25T16:17:23.769Z,29.40
2018-06-25T16:19:55.278Z,29.50
2018-06-25T16:22:26.535Z,29.60
2018-06-25T16:24:57.657Z,29.70
2018-06-25T16:27:28.864Z,29.70
2018-06-25T16:30:00.570Z,29.80
2018-06-25T16:32:31.656Z,29.80
2018-06-25T16:35:02.855Z,29.40
2018-06-25T16:37:34.268Z,29.40
2018-06-25T16:40:05.569Z,29.50
2018-06-25T16:42:37.051Z,29.40
2018-06-25T16:45:08.472Z,29.50
2018-06-25T16:47:39.811Z,29.50
2018-06-25T16:50:10.928Z,29.60
2018-06-25T16:52:42.135Z,29.50
2018-06-25T16:55:14.220Z,29.50
2018-06-25T17:00:16.192Z,29.60
2018-06-25T17:02:47.336Z,29.50
2018-06-25T17:05:18.496Z,29.40
2018-06-25T17:07:49.783Z,29.50
2018-06-25T17:10:20.904Z,29.50
2018-06-25T17:12:52.369Z,29.40
2018-06-25T17:17:54.468Z,29.30
2018-06-25T17:20:25.822Z,29.30
2018-06-25T17:22:56.916Z,29.10
2018-06-25T17:25:28.040Z,29.20
2018-06-25T17:27:59.209Z,29.10
2018-06-25T17:30:30.585Z,29.00
2018-06-25T17:33:01.642Z,29.10
2018-06-25T17:35:32.992Z,29.00
2018-06-25T17:38:04.311Z,29.00
2018-06-25T17:40:42.137Z,29.10
2018-06-25T17:43:13.486Z,29.00
2018-06-25T17:45:44.847Z,29.00
2018-06-25T17:48:16.275Z,28.90
2018-06-25T17:50:47.432Z,28.80
2018-06-25T17:53:18.617Z,28.80
2018-06-25T17:55:50.274Z,28.90
2018-06-25T17:58:21.832Z,28.70
2018-06-25T18:00:53.100Z,28.70
2018-06-25T18:03:24.137Z,28.60
2018-06-25T18:05:55.528Z,28.70
2018-06-25T18:08:26.728Z,28.70
2018-06-25T18:10:58.388Z,28.70
2018-06-25T18:13:29.715Z,28.60
2018-06-25T18:16:01.237Z,28.50
2018-06-25T18:18:32.280Z,28.50
2018-06-25T18:21:03.511Z,28.50
2018-06-25T18:23:34.823Z,28.40
2018-06-25T18:26:06.072Z,28.40
2018-06-25T18:28:37.471Z,28.40
2018-06-25T18:31:08.828Z,28.30
2018-06-25T18:33:40.072Z,28.20
2018-06-25T18:36:11.535Z,28.10
2018-06-25T18:38:42.645Z,27.80
2018-06-25T18:41:14.811Z,27.80
2018-06-25T18:43:46.184Z,27.80
2018-06-25T18:46:17.589Z,27.80
2018-06-25T18:48:48.926Z,27.70
2018-06-25T18:51:20.738Z,27.70
2018-06-25T18:53:51.896Z,27.60
2018-06-25T18:56:23.125Z,27.50
2018-06-25T18:58:54.519Z,27.40
2018-06-25T19:01:25.962Z,27.40
2018-06-25T19:03:58.933Z,27.30
2018-06-25T19:09:00.837Z,27.10
2018-06-25T19:11:32.459Z,27.10
2018-06-25T19:14:04.137Z,27.00
2018-06-25T19:16:35.547Z,26.80
2018-06-25T19:19:06.747Z,26.60
2018-06-25T19:21:37.788Z,26.40
2018-06-25T19:24:09.394Z,26.40
2018-06-25T19:26:40.614Z,26.30
2018-06-25T19:29:11.790Z,26.30
2018-06-25T19:31:42.937Z,26.20
2018-06-25T19:34:14.347Z,26.10
2018-06-25T19:36:45.604Z,26.10
2018-06-25T19:39:16.675Z,26.20
2018-06-25T19:41:48.073Z,26.10
2018-06-25T19:44:19.934Z,26.10
2018-06-25T19:46:51.330Z,26.00
2018-06-25T19:49:22.482Z,25.90
2018-06-25T19:51:53.830Z,25.80
2018-06-25T19:54:25.126Z,25.70
2018-06-25T19:56:56.275Z,25.50
2018-06-25T19:59:27.410Z,25.40
2018-06-25T20:01:58.785Z,25.30
2018-06-25T20:04:30.013Z,25.30
2018-06-25T20:07:01.276Z,25.30
2018-06-25T20:12:03.201Z,25.40
2018-06-25T20:14:34.488Z,25.30
2018-06-25T20:17:06.206Z,25.30
2018-06-25T20:19:37.447Z,25.30
2018-06-25T20:22:08.847Z,25.10
2018-06-25T20:24:40.055Z,24.80
2018-06-25T20:27:11.444Z,24.70
2018-06-25T20:29:42.702Z,24.60
2018-06-25T20:32:14.156Z,24.70
2018-06-25T20:34:45.348Z,24.70
2018-06-25T20:42:18.121Z,24.70
2018-06-25T20:44:49.240Z,24.70
2018-06-25T20:47:20.491Z,24.50
2018-06-25T20:49:51.820Z,24.40
2018-06-25T20:52:23.610Z,24.40
2018-06-25T20:54:54.969Z,24.30
2018-06-25T20:57:28.965Z,24.20
2018-06-25T21:00:00.165Z,24.00
2018-06-25T21:02:31.533Z,23.80
2018-06-25T21:05:02.757Z,23.70
2018-06-25T21:07:33.908Z,23.60
2018-06-25T21:10:05.375Z,23.60
2018-06-25T21:12:37.117Z,23.70
